Time;durP1;ratioP1;P1;durP2;ratioP2;P2;SDS_P1;SDS_P2;PMS_P1;PMS_P2;Temp;Humidity;BMP_temperature;BMP_pressure;BME280_temperature;BME280_humidity;BME280_pressure;Samples;Min_cycle;Max_cycle;Signal;HPM_P1;HPM_P2
2021/01/31 00:00:50;;;;;;;49.45;39.80;;;;;;;8.63;72.36;98462.28;4965425;28;96785;-64
2021/01/31 00:03:25;;;;;;;48.83;39.42;;;;;;;8.62;71.92;98460.59;4974672;28;98068;-64
2021/01/31 00:05:55;;;;;;;46.15;38.25;;;;;;;8.61;72.27;98456.34;4977905;28;97754;-64
2021/01/31 00:08:25;;;;;;;49.63;38.90;;;;;;;8.63;72.03;98454.50;4963044;28;98771;-64
2021/01/31 00:10:52;;;;;;;50.13;39.03;;;;;;;8.64;71.94;98456.16;4972982;28;99254;-65
2021/01/31 00:13:19;;;;;;;49.42;39.20;;;;;;;8.59;72.23;98458.25;4963971;28;97772;-65
2021/01/31 00:15:51;;;;;;;52.50;38.92;;;;;;;8.56;72.34;98453.25;4958648;28;99097;-63
2021/01/31 00:18:27;;;;;;;48.85;38.67;;;;;;;8.57;72.63;98441.91;4963772;28;97488;-63
2021/01/31 00:21:01;;;;;;;46.22;38.05;;;;;;;8.34;73.83;98441.75;4976291;28;99195;-65
2021/01/31 00:23:39;;;;;;;46.05;37.42;;;;;;;8.31;73.89;98441.97;4962308;28;99469;-65
2021/01/31 00:26:28;;;;;;;48.78;39.75;;;;;;;8.29;74.14;98430.00;4963493;28;97829;-66
2021/01/31 00:28:57;;;;;;;47.25;36.50;;;;;;;8.39;73.58;98424.09;4964933;28;98255;-63
2021/01/31 00:31:27;;;;;;;47.70;38.80;;;;;;;8.50;73.01;98425.13;4978586;28;98900;-65
2021/01/31 00:34:07;;;;;;;50.15;40.65;;;;;;;8.51;72.39;98418.97;4965072;28;98619;-65
2021/01/31 00:36:40;;;;;;;50.67;40.95;;;;;;;8.50;72.84;98414.72;4956379;28;97619;-63
2021/01/31 00:39:24;;;;;;;51.22;41.75;;;;;;;8.48;72.77;98408.84;4960982;28;97435;-63
2021/01/31 00:42:00;;;;;;;47.55;37.90;;;;;;;8.49;72.70;98413.09;4977120;28;99489;-65
2021/01/31 00:44:30;;;;;;;43.80;37.53;;;;;;;8.39;72.78;98413.72;4960940;28;97329;-63
2021/01/31 00:47:10;;;;;;;44.45;38.00;;;;;;;8.36;73.21;98423.47;4968705;28;97589;-65
2021/01/31 00:49:57;;;;;;;48.13;40.65;;;;;;;8.49;73.02;98428.66;4960310;28;97464;-64
2021/01/31 00:52:48;;;;;;;47.17;38.75;;;;;;;8.50;72.73;98423.34;4957225;28;100007;-64
2021/01/31 00:55:36;;;;;;;52.40;41.28;;;;;;;8.56;72.42;98430.72;4964080;28;97763;-65
2021/01/31 00:58:23;;;;;;;46.72;39.55;;;;;;;8.53;72.68;98440.50;4965392;28;100041;-64
2021/01/31 01:00:50;;;;;;;46.42;39.53;;;;;;;8.48;73.42;98447.78;4949755;28;100853;-64
2021/01/31 01:03:20;;;;;;;41.88;34.60;;;;;;;8.47;72.86;98436.56;4971382;28;97293;-65
2021/01/31 01:05:58;;;;;;;46.33;38.17;;;;;;;8.37;73.15;98427.75;4960627;28;97674;-64
2021/01/31 01:08:25;;;;;;;43.15;36.03;;;;;;;8.43;73.25;98439.47;4963732;28;99672;-64
2021/01/31 01:10:51;;;;;;;40.30;32.95;;;;;;;8.40;73.66;98435.31;4963856;28;98441;-64
2021/01/31 01:13:20;;;;;;;44.90;36.70;;;;;;;8.32;73.47;98438.44;4960046;28;100674;-64
2021/01/31 01:15:47;;;;;;;40.17;33.08;;;;;;;8.30;73.81;98435.09;4964570;28;97402;-64
2021/01/31 01:18:13;;;;;;;39.40;34.58;;;;;;;8.40;73.51;98436.13;4962046;28;98756;-64
2021/01/31 01:20:40;;;;;;;42.40;36.22;;;;;;;8.42;73.30;98433.47;4965967;28;98425;-64
2021/01/31 01:23:06;;;;;;;44.65;37.40;;;;;;;8.38;73.55;98438.03;4961996;28;97134;-65
2021/01/31 01:25:32;;;;;;;44.85;38.17;;;;;;;8.32;73.78;98438.44;4963456;28;96713;-64
2021/01/31 01:27:59;;;;;;;43.85;35.13;;;;;;;8.36;73.68;98432.13;4958385;28;98599;-64
2021/01/31 01:30:27;;;;;;;46.50;37.92;;;;;;;8.40;73.64;98427.53;4964603;28;98500;-64
2021/01/31 01:32:55;;;;;;;42.58;36.28;;;;;;;8.38;73.35;98432.84;4964883;28;97369;-64
2021/01/31 01:35:22;;;;;;;42.90;36.58;;;;;;;8.43;73.29;98421.31;4969075;28;99185;-64
2021/01/31 01:37:48;;;;;;;42.60;34.70;;;;;;;8.45;73.30;98419.41;4967978;28;98579;-64
2021/01/31 01:40:28;;;;;;;42.42;35.08;;;;;;;8.41;73.26;98418.78;4965095;28;98475;-65
2021/01/31 01:42:55;;;;;;;42.28;33.92;;;;;;;8.48;73.26;98412.25;4965895;28;97387;-64
2021/01/31 01:45:22;;;;;;;41.35;35.45;;;;;;;8.45;73.18;98407.25;4965757;28;96871;-64
2021/01/31 01:48:04;;;;;;;51.78;37.20;;;;;;;8.46;73.25;98397.69;4979212;28;98609;-64
2021/01/31 01:50:46;;;;;;;46.90;36.95;;;;;;;8.49;73.04;98393.13;4959519;28;98999;-64
2021/01/31 01:53:23;;;;;;;43.15;36.83;;;;;;;8.27;73.49;98388.59;4961270;28;100709;-64
2021/01/31 01:56:11;;;;;;;44.67;37.97;;;;;;;8.28;73.58;98382.47;4951759;28;97291;-64
2021/01/31 01:58:55;;;;;;;45.13;38.40;;;;;;;8.37;72.91;98379.25;4966042;28;97610;-65
2021/01/31 02:01:27;;;;;;;44.83;38.30;;;;;;;8.27;73.69;98382.56;4969564;28;98571;-65
2021/01/31 02:04:30;;;;;;;48.10;40.33;;;;;;;8.35;73.00;98377.66;4972755;28;96845;-64
2021/01/31 02:07:05;;;;;;;43.55;37.95;;;;;;;8.38;73.43;98391.28;4976697;28;96625;-64
2021/01/31 02:09:32;;;;;;;43.42;37.72;;;;;;;8.37;73.10;98389.63;4974347;28;99672;-64
2021/01/31 02:12:12;;;;;;;45.00;38.95;;;;;;;8.39;73.11;98394.72;4969023;28;97536;-64
2021/01/31 02:15:11;;;;;;;38.63;33.85;;;;;;;8.43;72.97;98395.34;4976464;28;97431;-64
2021/01/31 02:18:32;;;;;;;40.15;34.47;;;;;;;8.34;73.38;98404.56;4965423;28;96765;-64
2021/01/31 02:24:54;;;;;;;35.47;31.60;;;;;;;8.31;73.19;98399.56;4952821;28;97541;-65
2021/01/31 02:27:56;;;;;;;39.20;32.78;;;;;;;8.29;73.21;98407.47;4964159;28;96703;-65
2021/01/31 02:30:41;;;;;;;36.70;32.83;;;;;;;8.29;73.27;98423.06;4968854;28;96676;-64
2021/01/31 02:33:24;;;;;;;35.47;31.65;;;;;;;8.25;73.73;98408.63;4959593;28;98410;-64
2021/01/31 02:35:54;;;;;;;32.88;29.38;;;;;;;8.31;73.46;98410.81;4947839;28;98537;-64
2021/01/31 02:38:27;;;;;;;35.47;31.67;;;;;;;8.26;73.32;98412.91;4964026;28;97691;-64
2021/01/31 02:41:01;;;;;;;35.00;31.30;;;;;;;8.19;73.79;98406.44;4947050;28;96805;-64
2021/01/31 02:43:40;;;;;;;36.70;32.87;;;;;;;8.25;73.78;98403.44;4963740;28;99573;-64
2021/01/31 02:46:32;;;;;;;32.15;28.75;;;;;;;8.33;73.38;98408.09;4954787;28;98755;-63
2021/01/31 02:49:08;;;;;;;33.80;30.10;;;;;;;8.27;73.27;98408.53;4965752;28;97222;-64
2021/01/31 02:51:57;;;;;;;34.10;30.48;;;;;;;8.16;73.75;98409.28;4955185;28;97319;-64
2021/01/31 02:54:48;;;;;;;32.17;28.83;;;;;;;8.26;73.38;98404.28;4962252;28;98543;-63
2021/01/31 02:57:20;;;;;;;33.97;30.48;;;;;;;8.39;73.28;98400.75;4963460;28;98481;-64
2021/01/31 02:59:53;;;;;;;32.17;28.88;;;;;;;8.38;73.09;98396.50;4959331;28;97611;-64
2021/01/31 03:02:21;;;;;;;31.63;28.38;;;;;;;8.39;72.64;98398.13;4962788;28;98506;-64
2021/01/31 03:04:53;;;;;;;31.42;28.08;;;;;;;8.39;73.18;98395.53;4974936;28;98658;-64
2021/01/31 03:07:40;;;;;;;32.95;29.63;;;;;;;8.31;73.22;98396.97;4979264;28;98376;-64
2021/01/31 03:10:09;;;;;;;33.72;29.33;;;;;;;8.34;72.96;98394.19;4979876;28;97557;-64
2021/01/31 03:13:13;;;;;;;31.52;28.15;;;;;;;8.40;72.97;98398.97;4981061;28;96914;-64
2021/01/31 03:15:47;;;;;;;32.13;28.73;;;;;;;8.32;73.32;98393.47;4967748;28;98655;-64
2021/01/31 03:18:30;;;;;;;34.03;30.43;;;;;;;8.21;73.68;98398.59;4970896;28;98486;-65
2021/01/31 03:21:10;;;;;;;36.15;31.38;;;;;;;8.32;73.13;98396.88;4989863;28;96661;-64
2021/01/31 03:23:46;;;;;;;30.92;27.40;;;;;;;8.38;73.02;98404.28;4972881;28;96496;-64
2021/01/31 03:26:15;;;;;;;31.20;27.92;;;;;;;8.36;72.86;98403.56;4965018;28;98507;-64
2021/01/31 03:28:42;;;;;;;31.20;27.50;;;;;;;8.42;72.53;98391.09;4963914;28;98956;-64
2021/01/31 03:31:08;;;;;;;30.60;27.33;;;;;;;8.47;72.54;98388.97;4946585;28;97159;-64
2021/01/31 03:34:00;;;;;;;38.78;30.33;;;;;;;8.44;72.38;98386.59;4949981;28;98004;-62
2021/01/31 03:36:27;;;;;;;33.13;29.25;;;;;;;8.32;72.88;98386.50;4961033;28;99168;-63
2021/01/31 03:38:53;;;;;;;40.20;32.70;;;;;;;8.29;73.13;98372.91;4944571;28;98382;-64
2021/01/31 03:41:21;;;;;;;39.70;34.13;;;;;;;8.39;72.62;98374.78;4961390;28;97249;-65
2021/01/31 03:43:48;;;;;;;43.50;36.63;;;;;;;8.23;73.33;98379.34;4959667;28;97615;-65
2021/01/31 03:46:27;;;;;;;47.30;38.92;;;;;;;8.17;73.93;98373.78;4961909;28;97771;-65
2021/01/31 03:49:17;;;;;;;45.80;37.40;;;;;;;8.10;73.79;98381.16;4967061;28;98422;-65
2021/01/31 03:51:43;;;;;;;50.42;40.78;;;;;;;8.13;73.42;98386.13;4954024;28;97475;-65
2021/01/31 03:54:10;;;;;;;54.38;41.92;;;;;;;8.22;73.59;98388.09;4963758;28;96787;-65
2021/01/31 03:56:38;;;;;;;49.45;39.13;;;;;;;8.17;73.25;98387.56;4964496;28;98696;-64
2021/01/31 03:59:05;;;;;;;57.78;45.25;;;;;;;8.16;73.52;98385.91;4958332;28;98398;-64
2021/01/31 04:01:35;;;;;;;55.58;44.10;;;;;;;8.21;73.48;98386.44;4959079;28;96767;-63
2021/01/31 04:04:17;;;;;;;56.60;46.00;;;;;;;8.25;73.10;98387.84;4977969;28;98153;-63
2021/01/31 04:06:44;;;;;;;52.25;42.28;;;;;;;8.08;73.46;98396.00;4980186;28;98622;-63
2021/01/31 04:09:10;;;;;;;51.38;41.10;;;;;;;7.99;74.17;98394.03;4962093;28;98482;-64
2021/01/31 04:11:40;;;;;;;52.35;41.83;;;;;;;8.03;74.09;98398.06;4964752;28;96844;-62
2021/01/31 04:14:15;;;;;;;52.30;41.30;;;;;;;7.93;74.21;98395.28;4962870;28;97236;-63
2021/01/31 04:16:45;;;;;;;54.67;40.90;;;;;;;8.08;74.14;98402.00;4958492;28;100121;-63
2021/01/31 04:19:12;;;;;;;49.78;40.08;;;;;;;7.87;75.16;98388.75;4962117;28;99002;-63
2021/01/31 04:21:38;;;;;;;51.92;41.38;;;;;;;8.03;74.59;98390.28;4962751;28;97374;-64
2021/01/31 04:24:05;;;;;;;53.35;40.42;;;;;;;7.98;74.07;98389.78;4962596;28;97044;-63
2021/01/31 04:26:32;;;;;;;48.38;42.20;;;;;;;8.00;74.26;98400.91;4965754;28;98430;-63
2021/01/31 04:28:58;;;;;;;50.30;40.28;;;;;;;8.01;74.48;98394.75;4965877;28;100603;-63
2021/01/31 04:31:28;;;;;;;44.40;38.00;;;;;;;7.99;74.18;98399.22;4959129;28;100844;-63
2021/01/31 04:33:54;;;;;;;43.40;37.05;;;;;;;7.94;74.09;98399.56;4962698;28;96996;-63
2021/01/31 04:36:21;;;;;;;47.08;39.08;;;;;;;8.07;74.05;98402.94;4964565;28;98429;-64
2021/01/31 04:38:48;;;;;;;47.55;37.08;;;;;;;8.18;73.20;98401.38;4960871;28;98667;-64
2021/01/31 04:41:15;;;;;;;42.80;36.92;;;;;;;8.13;73.08;98404.28;4964254;28;98592;-64
2021/01/31 04:43:42;;;;;;;43.47;36.25;;;;;;;8.23;72.84;98414.88;4961217;28;99198;-64
2021/01/31 04:46:09;;;;;;;46.28;38.90;;;;;;;8.10;72.99;98417.50;4960467;28;98586;-64
2021/01/31 04:48:48;;;;;;;43.00;36.75;;;;;;;7.96;73.76;98410.63;4967558;28;98541;-62
2021/01/31 04:51:36;;;;;;;42.55;35.20;;;;;;;8.02;73.95;98411.97;4969755;28;96725;-63
2021/01/31 04:54:10;;;;;;;39.45;34.40;;;;;;;8.06;73.61;98416.03;4970504;28;96762;-64
2021/01/31 04:56:41;;;;;;;41.87;34.80;;;;;;;8.04;73.67;98423.06;4963813;28;98648;-63
2021/01/31 04:59:22;;;;;;;44.20;36.90;;;;;;;7.84;73.92;98422.69;4961709;28;98703;-64
2021/01/31 05:01:51;;;;;;;41.17;35.90;;;;;;;8.04;73.81;98426.53;4960306;28;97276;-64
2021/01/31 05:04:18;;;;;;;38.95;34.65;;;;;;;8.09;73.52;98426.19;4965445;28;97678;-63
2021/01/31 05:06:54;;;;;;;41.15;35.90;;;;;;;8.02;73.42;98420.59;4961185;28;98652;-64
2021/01/31 05:09:23;;;;;;;38.55;33.53;;;;;;;7.90;74.28;98423.22;4963640;28;99345;-63
2021/01/31 05:12:12;;;;;;;40.75;33.17;;;;;;;8.01;73.89;98421.53;4961703;28;97513;-63
2021/01/31 05:14:39;;;;;;;35.95;31.65;;;;;;;8.09;73.89;98423.59;4967973;28;97327;-63
2021/01/31 05:17:06;;;;;;;35.05;30.27;;;;;;;8.05;73.25;98425.59;4965768;28;98556;-64
2021/01/31 05:19:32;;;;;;;32.13;28.15;;;;;;;7.95;74.06;98426.31;4961024;28;98552;-63
2021/01/31 05:21:59;;;;;;;31.92;28.42;;;;;;;8.01;73.81;98429.31;4961393;28;96677;-64
2021/01/31 05:24:25;;;;;;;33.38;29.75;;;;;;;8.02;73.76;98427.56;4961309;28;99641;-63
2021/01/31 05:26:56;;;;;;;33.65;30.05;;;;;;;8.01;73.61;98431.09;4945338;28;98734;-63
2021/01/31 05:29:25;;;;;;;35.40;31.58;;;;;;;8.02;73.63;98430.97;4968383;28;98424;-63
2021/01/31 05:32:10;;;;;;;30.42;27.13;;;;;;;8.00;73.87;98429.44;4976894;28;98202;-63
2021/01/31 05:34:50;;;;;;;35.92;30.95;;;;;;;8.00;73.97;98427.66;4965608;28;97691;-62
2021/01/31 05:37:24;;;;;;;33.72;29.77;;;;;;;7.98;73.80;98433.88;4964963;28;100617;-63
2021/01/31 05:40:03;;;;;;;33.45;29.85;;;;;;;8.02;73.66;98430.16;4964409;28;99746;-63
2021/01/31 05:42:31;;;;;;;29.80;26.70;;;;;;;8.05;73.59;98425.59;4964725;28;98692;-63
2021/01/31 05:45:08;;;;;;;31.08;27.15;;;;;;;7.99;73.91;98425.16;4946463;28;96659;-63
2021/01/31 05:47:41;;;;;;;27.73;24.70;;;;;;;7.93;73.91;98426.41;4962275;28;98695;-63
2021/01/31 05:50:22;;;;;;;27.25;24.33;;;;;;;8.01;73.46;98428.50;4965242;28;98551;-63
2021/01/31 05:52:48;;;;;;;27.63;24.73;;;;;;;8.05;73.58;98429.94;4968160;28;97464;-63
2021/01/31 05:55:27;;;;;;;26.05;23.27;;;;;;;7.95;74.15;98434.94;4963092;28;97376;-64
2021/01/31 05:58:12;;;;;;;23.83;21.38;;;;;;;7.85;73.88;98431.31;4963180;28;97484;-64
2021/01/31 06:00:39;;;;;;;21.60;18.92;;;;;;;7.94;73.75;98430.69;4966818;28;98547;-64
2021/01/31 06:03:07;;;;;;;21.92;19.52;;;;;;;7.97;73.74;98427.03;4968422;28;98249;-63
2021/01/31 06:05:33;;;;;;;22.27;19.95;;;;;;;7.94;73.83;98422.91;4963061;28;100039;-64
2021/01/31 06:08:00;;;;;;;22.95;19.67;;;;;;;7.96;73.61;98427.97;4964004;28;98448;-63
2021/01/31 06:10:26;;;;;;;21.25;19.05;;;;;;;7.97;73.52;98421.84;4963091;28;98387;-63
2021/01/31 06:13:05;;;;;;;19.75;17.75;;;;;;;8.09;73.32;98426.19;4978431;28;96778;-64
2021/01/31 06:15:42;;;;;;;19.70;17.75;;;;;;;8.01;73.65;98433.69;4962288;28;97183;-63
2021/01/31 06:18:17;;;;;;;18.98;16.98;;;;;;;8.11;73.01;98439.91;4975784;28;98730;-64
2021/01/31 06:20:43;;;;;;;19.52;17.45;;;;;;;7.98;73.35;98436.47;4955973;28;98689;-64
2021/01/31 06:23:28;;;;;;;17.27;15.48;;;;;;;7.85;74.38;98439.09;4963626;28;97165;-63
2021/01/31 06:25:55;;;;;;;18.60;16.63;;;;;;;7.97;73.77;98443.44;4981816;28;96697;-62
2021/01/31 06:28:24;;;;;;;17.23;15.50;;;;;;;7.97;73.79;98447.78;4975864;28;98999;-63
2021/01/31 06:30:56;;;;;;;17.17;15.38;;;;;;;7.83;74.21;98446.97;4990100;28;98754;-63
2021/01/31 06:33:23;;;;;;;17.73;15.93;;;;;;;7.88;73.98;98450.09;4970838;28;96626;-63
2021/01/31 06:35:55;;;;;;;17.05;15.32;;;;;;;8.03;73.50;98453.38;4974616;28;98211;-62
2021/01/31 06:38:47;;;;;;;16.13;14.38;;;;;;;7.95;74.05;98454.88;4957538;28;99047;-64
2021/01/31 06:41:44;;;;;;;15.02;13.50;;;;;;;7.93;73.90;98467.91;4973234;28;98475;-64
2021/01/31 06:44:23;;;;;;;14.25;12.75;;;;;;;7.89;73.69;98466.50;4973506;28;96714;-64
2021/01/31 06:47:08;;;;;;;13.25;11.95;;;;;;;8.07;73.18;98473.00;4974184;28;96635;-61
2021/01/31 06:49:48;;;;;;;14.43;12.88;;;;;;;8.07;73.01;98474.78;4974493;28;98552;-67
2021/01/31 06:52:20;;;;;;;13.82;12.43;;;;;;;8.08;72.94;98479.03;4973187;28;98611;-64
2021/01/31 06:54:56;;;;;;;14.60;12.90;;;;;;;8.09;72.96;98485.88;4973147;28;96504;-65
2021/01/31 06:57:22;;;;;;;13.85;11.70;;;;;;;8.01;73.42;98490.78;4974863;28;96573;-64
2021/01/31 07:00:22;;;;;;;11.48;10.07;;;;;;;7.88;74.16;98504.56;4974104;28;98383;-64
2021/01/31 07:03:07;;;;;;;14.07;12.70;;;;;;;7.99;73.51;98506.44;4974468;28;98667;-65
2021/01/31 07:06:10;;;;;;;13.20;11.80;;;;;;;8.10;72.94;98511.75;4974401;28;96626;-64
2021/01/31 07:08:59;;;;;;;15.77;12.40;;;;;;;8.08;73.34;98512.78;4974622;28;96722;-65
2021/01/31 07:11:32;;;;;;;12.27;10.98;;;;;;;8.04;73.24;98517.34;4971795;28;98556;-65
2021/01/31 07:14:20;;;;;;;12.32;10.90;;;;;;;8.06;73.24;98522.44;4973621;28;98644;-64
2021/01/31 07:17:02;;;;;;;12.10;10.88;;;;;;;7.94;74.00;98521.50;4974546;28;97476;-65
2021/01/31 07:20:00;;;;;;;13.25;11.85;;;;;;;7.91;74.45;98526.03;4957206;28;96618;-64
2021/01/31 07:23:04;;;;;;;13.32;11.70;;;;;;;7.91;74.20;98528.63;4962035;28;98537;-64
2021/01/31 07:25:38;;;;;;;14.30;10.05;;;;;;;7.98;74.40;98528.13;4954443;28;98453;-65
2021/01/31 07:28:16;;;;;;;12.02;9.93;;;;;;;8.05;73.73;98529.38;4972676;28;96771;-64
2021/01/31 07:30:49;;;;;;;10.07;9.05;;;;;;;8.10;73.93;98531.69;4973159;28;97142;-65
2021/01/31 07:33:38;;;;;;;11.05;9.95;;;;;;;8.14;73.60;98533.13;4970556;28;98595;-65
2021/01/31 07:36:14;;;;;;;10.70;9.63;;;;;;;8.19;73.34;98541.41;4971256;28;98747;-65
2021/01/31 07:38:46;;;;;;;10.32;9.23;;;;;;;8.20;73.57;98543.09;4972110;28;96734;-65
2021/01/31 07:41:12;;;;;;;10.50;9.40;;;;;;;8.25;72.90;98541.00;4972395;28;96746;-65
2021/01/31 07:43:39;;;;;;;9.93;8.55;;;;;;;8.21;73.45;98534.38;4972035;28;98523;-64
2021/01/31 07:46:07;;;;;;;10.10;8.52;;;;;;;8.26;73.77;98547.88;4971440;28;98608;-67
2021/01/31 07:48:50;;;;;;;9.68;8.77;;;;;;;8.22;73.24;98562.00;4972827;28;96620;-68
2021/01/31 07:51:40;;;;;;;8.90;8.00;;;;;;;8.18;73.89;98551.91;4971860;28;96636;-65
2021/01/31 07:54:21;;;;;;;8.80;7.82;;;;;;;8.21;74.08;98555.16;4970523;28;97136;-66
2021/01/31 07:56:48;;;;;;;9.48;8.48;;;;;;;8.21;73.99;98555.16;4973101;28;98683;-67
2021/01/31 07:59:14;;;;;;;8.48;7.60;;;;;;;8.28;73.50;98556.38;4972620;28;96594;-66
2021/01/31 08:01:41;;;;;;;9.73;8.73;;;;;;;8.20;73.66;98560.41;4973882;28;96659;-66
2021/01/31 08:04:16;;;;;;;8.27;7.47;;;;;;;8.30;73.91;98557.09;4972962;28;97804;-69
2021/01/31 08:06:57;;;;;;;7.90;7.10;;;;;;;8.34;73.38;98560.34;4972564;28;98564;-65
2021/01/31 08:09:23;;;;;;;7.85;7.05;;;;;;;8.39;73.51;98563.47;4974124;28;96530;-65
2021/01/31 08:12:10;;;;;;;8.52;7.68;;;;;;;8.25;73.95;98559.19;4972489;28;96691;-65
2021/01/31 08:15:06;;;;;;;8.00;7.20;;;;;;;8.34;73.67;98561.16;4972983;28;98618;-64
2021/01/31 08:17:54;;;;;;;8.35;7.22;;;;;;;8.32;74.12;98570.00;4969156;28;98554;-65
2021/01/31 08:20:27;;;;;;;7.78;7.00;;;;;;;8.18;74.24;98557.94;4973856;28;96718;-68
2021/01/31 08:22:55;;;;;;;9.60;7.50;;;;;;;8.26;74.58;98562.63;4972935;28;98212;-69
2021/01/31 08:25:21;;;;;;;7.57;6.22;;;;;;;8.28;74.45;98561.59;4972642;28;98610;-69
2021/01/31 08:27:50;;;;;;;8.20;6.95;;;;;;;8.36;74.10;98564.53;4972618;28;98626;-68
2021/01/31 08:30:27;;;;;;;7.13;6.43;;;;;;;8.40;73.75;98565.97;4971748;28;96771;-65
2021/01/31 08:33:06;;;;;;;6.53;5.82;;;;;;;8.47;73.79;98569.00;4969679;28;96953;-64
2021/01/31 08:35:41;;;;;;;6.95;6.25;;;;;;;8.49;73.69;98568.88;4970293;28;98661;-64
2021/01/31 08:38:33;;;;;;;10.27;8.45;;;;;;;8.29;74.29;98573.63;4971463;28;98456;-65
2021/01/31 08:41:05;;;;;;;9.13;6.90;;;;;;;8.28;74.50;98577.16;4971353;28;96801;-66
2021/01/31 08:43:36;;;;;;;6.68;6.05;;;;;;;8.44;74.01;98581.34;4973305;28;97623;-65
2021/01/31 08:46:25;;;;;;;8.73;7.80;;;;;;;8.37;74.18;98581.78;4972901;28;98625;-66
2021/01/31 08:49:14;;;;;;;7.80;7.00;;;;;;;8.42;74.56;98591.03;4974325;28;98786;-66
2021/01/31 08:51:55;;;;;;;8.10;7.03;;;;;;;8.59;73.96;98595.91;4974406;28;96875;-66
2021/01/31 08:54:22;;;;;;;8.25;7.22;;;;;;;8.61;73.98;98594.00;4973508;28;96533;-66
2021/01/31 08:56:59;;;;;;;8.57;7.50;;;;;;;8.62;73.42;98595.66;4972245;28;98883;-63
2021/01/31 08:59:39;;;;;;;8.00;7.20;;;;;;;8.55;73.79;98599.63;4971459;28;98587;-65
2021/01/31 09:02:09;;;;;;;7.82;6.38;;;;;;;8.64;73.34;98599.00;4971492;28;96976;-65
2021/01/31 09:04:37;;;;;;;7.85;7.05;;;;;;;8.53;74.61;98604.09;4973920;28;96799;-65
2021/01/31 09:07:03;;;;;;;11.45;8.40;;;;;;;8.66;73.60;98604.94;4969607;28;98624;-64
2021/01/31 09:09:34;;;;;;;10.10;8.40;;;;;;;8.69;73.93;98596.09;4972944;28;98437;-61
2021/01/31 09:12:08;;;;;;;9.20;7.35;;;;;;;8.61;74.27;98599.22;4990399;28;97773;-67
2021/01/31 09:14:36;;;;;;;8.23;7.38;;;;;;;8.64;74.29;98605.03;4973622;28;96539;-68
2021/01/31 09:17:09;;;;;;;9.77;7.15;;;;;;;8.56;74.54;98606.47;4975419;28;98966;-73
2021/01/31 09:19:35;;;;;;;8.27;7.47;;;;;;;8.61;74.54;98620.00;4974953;28;98410;-69
2021/01/31 09:22:19;;;;;;;8.00;6.68;;;;;;;8.63;74.29;98612.94;4988575;28;97002;-67
2021/01/31 09:24:50;;;;;;;9.45;8.63;;;;;;;8.67;74.10;98614.38;4986050;28;97795;-69
2021/01/31 09:27:19;;;;;;;20.77;13.73;;;;;;;8.74;74.44;98618.25;4972618;28;98409;-69
2021/01/31 09:29:46;;;;;;;45.20;32.28;;;;;;;8.69;74.10;98622.91;4971090;28;98456;-69
2021/01/31 09:32:23;;;;;;;63.63;47.33;;;;;;;8.62;74.83;98611.25;4964827;28;97658;-69
2021/01/31 09:34:49;;;;;;;32.00;27.10;;;;;;;8.78;74.42;98622.25;4963560;28;96676;-71
2021/01/31 09:37:27;;;;;;;11.57;9.98;;;;;;;8.65;74.26;98622.28;4987441;28;97930;-68
2021/01/31 09:39:54;;;;;;;8.38;7.57;;;;;;;8.74;74.42;98625.19;4973246;28;98641;-68
2021/01/31 09:42:21;;;;;;;7.15;6.45;;;;;;;8.77;74.17;98627.56;4972592;28;96676;-65
2021/01/31 09:44:52;;;;;;;8.52;6.93;;;;;;;8.81;74.02;98632.47;4961711;28;97253;-65
2021/01/31 09:47:19;;;;;;;7.82;7.10;;;;;;;8.72;74.66;98635.69;4972054;28;98581;-69
2021/01/31 09:49:50;;;;;;;19.38;13.88;;;;;;;8.77;74.33;98635.38;4981324;28;98594;-67
2021/01/31 09:52:17;;;;;;;32.00;23.00;;;;;;;8.64;74.89;98635.38;4969035;28;96725;-67
2021/01/31 09:54:43;;;;;;;44.58;26.45;;;;;;;8.81;74.24;98629.03;4963407;28;96751;-68
2021/01/31 09:57:28;;;;;;;44.65;31.15;;;;;;;8.85;74.21;98625.28;4973827;28;98741;-67
2021/01/31 10:00:01;;;;;;;;;;;;;;;8.79;74.55;98626.56;4972205;28;97463;-69
2021/01/31 10:02:37;;;;;;;18.20;14.10;;;;;;;8.89;73.82;98624.13;4973093;28;97097;-68
2021/01/31 10:05:06;;;;;;;18.27;13.27;;;;;;;8.88;73.88;98631.09;4973849;28;96671;-63
2021/01/31 10:07:34;;;;;;;12.52;10.88;;;;;;;8.90;73.92;98631.00;4973417;28;98586;-71
2021/01/31 10:10:25;;;;;;;12.30;9.98;;;;;;;8.92;74.16;98635.16;4972234;28;98438;-73
2021/01/31 10:13:12;;;;;;;8.73;7.55;;;;;;;8.94;74.33;98632.44;4974206;28;96971;-73
2021/01/31 10:15:39;;;;;;;7.63;6.50;;;;;;;8.84;74.61;98628.81;4969456;28;96646;-71
2021/01/31 10:18:12;;;;;;;9.38;8.02;;;;;;;8.83;74.40;98640.97;4973915;28;98532;-72
2021/01/31 10:20:40;;;;;;;8.77;7.88;;;;;;;8.83;75.13;98640.97;4972003;28;98460;-68
2021/01/31 10:23:06;;;;;;;9.02;8.07;;;;;;;8.93;74.48;98646.38;4973576;28;96897;-69
2021/01/31 10:25:33;;;;;;;11.57;9.80;;;;;;;8.88;74.53;98653.66;4973513;28;97037;-69
2021/01/31 10:28:01;;;;;;;10.25;7.82;;;;;;;8.83;75.00;98651.38;4974072;28;98605;-70
2021/01/31 10:30:37;;;;;;;8.40;7.60;;;;;;;8.83;74.89;98656.56;4972311;28;98656;-70
2021/01/31 10:33:03;;;;;;;10.20;7.65;;;;;;;8.90;74.60;98657.00;4969117;28;96845;-70
2021/01/31 10:35:32;;;;;;;9.00;7.63;;;;;;;8.90;74.71;98660.44;4973954;28;96649;-71
2021/01/31 10:38:30;;;;;;;8.20;6.68;;;;;;;8.89;74.68;98661.38;4971932;28;98622;-70
2021/01/31 10:40:57;;;;;;;7.20;6.50;;;;;;;8.92;74.95;98655.94;4972990;28;98527;-70
2021/01/31 10:43:24;;;;;;;9.05;8.00;;;;;;;8.84;74.88;98658.25;4972809;28;96898;-69
2021/01/31 10:45:51;;;;;;;7.97;6.85;;;;;;;8.84;75.17;98658.25;4973296;28;97233;-70
2021/01/31 10:48:17;;;;;;;9.02;8.13;;;;;;;8.83;75.35;98661.75;4972110;28;98478;-70
2021/01/31 10:50:44;;;;;;;8.52;7.53;;;;;;;8.89;75.09;98655.31;4966286;28;98592;-71
2021/01/31 10:53:11;;;;;;;7.72;6.90;;;;;;;8.93;74.40;98652.41;4969774;28;97498;-69
2021/01/31 10:55:37;;;;;;;7.78;7.00;;;;;;;8.95;74.58;98654.06;4972294;28;97067;-71
2021/01/31 10:58:04;;;;;;;9.20;7.00;;;;;;;8.93;74.93;98656.78;4971064;28;98952;-68
2021/01/31 11:00:30;;;;;;;9.88;7.78;;;;;;;8.84;75.10;98663.44;4970618;28;98617;-72
2021/01/31 11:02:56;;;;;;;9.57;8.18;;;;;;;8.95;74.64;98670.50;4968406;28;96677;-71
2021/01/31 11:05:23;;;;;;;13.55;7.68;;;;;;;8.98;74.02;98664.25;4973035;28;96659;-70
2021/01/31 11:07:49;;;;;;;8.88;7.97;;;;;;;9.01;74.39;98670.09;4971510;28;98635;-69
2021/01/31 11:10:16;;;;;;;9.05;8.18;;;;;;;8.92;74.39;98670.69;4971347;28;98626;-70
2021/01/31 11:12:42;;;;;;;11.15;8.57;;;;;;;8.95;75.01;98664.44;4970463;28;96836;-69
2021/01/31 11:15:09;;;;;;;8.93;7.65;;;;;;;8.97;75.10;98667.78;4971141;28;97407;-66
2021/01/31 11:17:36;;;;;;;9.32;8.30;;;;;;;8.96;75.27;98669.56;4970566;28;98391;-68
2021/01/31 11:20:03;;;;;;;10.35;9.02;;;;;;;8.86;75.45;98669.34;4971707;28;98606;-67
2021/01/31 11:22:29;;;;;;;9.40;8.25;;;;;;;8.90;75.05;98670.81;4971651;28;97240;-67
2021/01/31 11:24:56;;;;;;;10.77;8.38;;;;;;;9.00;74.72;98675.38;4971442;28;96691;-69
2021/01/31 11:27:22;;;;;;;9.38;8.48;;;;;;;8.98;74.79;98672.06;4986550;28;99013;-66
2021/01/31 11:29:48;;;;;;;9.32;8.43;;;;;;;8.86;75.49;98671.13;4971159;28;98593;-68
2021/01/31 11:32:15;;;;;;;10.20;8.50;;;;;;;8.88;75.61;98675.28;4966919;28;98761;-70
2021/01/31 11:34:41;;;;;;;10.23;8.50;;;;;;;8.94;75.70;98668.81;4970045;28;96906;-66
2021/01/31 11:37:07;;;;;;;8.63;7.72;;;;;;;9.02;75.12;98668.31;4967986;28;98619;-67
2021/01/31 11:39:34;;;;;;;9.13;8.23;;;;;;;8.97;75.51;98670.41;4986365;28;97488;-68
2021/01/31 11:42:00;;;;;;;14.25;9.07;;;;;;;8.88;75.65;98670.06;4970337;28;97787;-67
2021/01/31 11:44:26;;;;;;;9.63;7.93;;;;;;;8.92;75.63;98668.09;4971069;28;97050;-66
2021/01/31 11:46:53;;;;;;;9.27;8.35;;;;;;;8.82;76.36;98670.50;4970386;28;98440;-67
2021/01/31 11:49:19;;;;;;;9.20;8.32;;;;;;;8.91;75.87;98680.28;4969706;28;98386;-68
2021/01/31 11:51:46;;;;;;;8.68;7.88;;;;;;;9.05;75.49;98681.09;4968004;28;98147;-69
2021/01/31 11:54:12;;;;;;;9.30;8.40;;;;;;;9.02;75.64;98676.09;4968888;28;96727;-70
2021/01/31 11:56:39;;;;;;;9.77;8.82;;;;;;;9.02;75.59;98670.91;4968030;28;98570;-67
2021/01/31 11:59:05;;;;;;;10.13;8.65;;;;;;;9.04;75.97;98676.81;4967344;28;98721;-66
2021/01/31 12:01:31;;;;;;;9.00;8.10;;;;;;;8.90;76.50;98678.63;4969748;28;96836;-73
2021/01/31 12:03:58;;;;;;;10.43;8.95;;;;;;;9.00;75.93;98680.56;4970302;28;97203;-68